createdAt,value
2022-07-29T00:02:17.405Z,100787.66
2022-07-29T00:04:44.121Z,100785.53
2022-07-29T00:07:10.869Z,100791.22
2022-07-29T00:09:42.938Z,100787.13
2022-07-29T00:12:26.125Z,100787.13
2022-07-29T00:14:54.821Z,100787.91
2022-07-29T00:17:21.364Z,100798.25
2022-07-29T00:19:47.940Z,100796.97
2022-07-29T00:22:14.968Z,100811.56
2022-07-29T00:24:41.742Z,100812.63
2022-07-29T00:27:08.345Z,100811.81
2022-07-29T00:29:35.290Z,100822.06
2022-07-29T00:32:03.587Z,100824.50
2022-07-29T00:34:49.234Z,100829.13
2022-07-29T00:37:15.791Z,100818.25
2022-07-29T00:39:42.340Z,100820.94
2022-07-29T00:42:09.187Z,100832.81
2022-07-29T00:44:42.899Z,100826.94
2022-07-29T00:47:11.468Z,100831.16
2022-07-29T00:49:40.410Z,100837.13
2022-07-29T00:52:08.355Z,100837.38
2022-07-29T00:54:35.766Z,100853.44
2022-07-29T00:57:10.879Z,100851.47
2022-07-29T00:59:37.461Z,100839.53
2022-07-29T01:02:04.473Z,100829.56
2022-07-29T01:04:32.408Z,100823.88
2022-07-29T01:07:00.837Z,100829.66
2022-07-29T01:09:42.251Z,100831.81
2022-07-29T01:12:20.023Z,100830.34
2022-07-29T01:14:49.099Z,100829.00
2022-07-29T01:17:25.553Z,100833.63
2022-07-29T01:20:02.586Z,100820.00
2022-07-29T01:22:35.179Z,100819.03
2022-07-29T01:25:13.860Z,100829.66
2022-07-29T01:27:46.485Z,100812.09
2022-07-29T01:30:15.575Z,100793.75
2022-07-29T01:32:44.049Z,100811.25
2022-07-29T01:35:24.500Z,100801.44
2022-07-29T01:38:11.810Z,100806.03
2022-07-29T01:41:10.507Z,100805.78
2022-07-29T01:43:50.505Z,100814.84
2022-07-29T01:46:23.999Z,100817.66
2022-07-29T01:48:57.242Z,100815.78
2022-07-29T01:51:36.993Z,100808.56
2022-07-29T01:54:14.514Z,100812.13
2022-07-29T01:56:44.717Z,100804.97
2022-07-29T01:59:11.859Z,100806.41
2022-07-29T02:01:41.850Z,100797.28
2022-07-29T02:04:10.857Z,100795.34
2022-07-29T02:06:41.731Z,100794.81
2022-07-29T02:09:10.694Z,100802.69
2022-07-29T02:11:39.197Z,100794.88
2022-07-29T02:14:08.012Z,100797.31
2022-07-29T02:16:36.941Z,100801.88
2022-07-29T02:19:04.965Z,100793.81
2022-07-29T02:21:34.095Z,100804.59
2022-07-29T02:24:02.581Z,100806.22
2022-07-29T02:26:31.394Z,100809.19
2022-07-29T02:29:00.196Z,100812.13
2022-07-29T02:31:33.506Z,100801.03
2022-07-29T02:34:03.501Z,100803.47
2022-07-29T02:36:31.731Z,100809.44
2022-07-29T02:39:01.658Z,100805.59
2022-07-29T02:41:42.316Z,100806.53
2022-07-29T02:44:18.449Z,100807.75
2022-07-29T02:46:56.889Z,100807.56
2022-07-29T02:49:26.524Z,100792.41
2022-07-29T02:52:01.139Z,100797.38
2022-07-29T02:54:42.107Z,100798.16
2022-07-29T02:57:35.265Z,100795.22
2022-07-29T03:00:23.384Z,100797.72
2022-07-29T03:02:53.412Z,100799.91
2022-07-29T03:05:21.851Z,100798.44
2022-07-29T03:07:58.170Z,100802.03
2022-07-29T03:10:26.744Z,100805.81
2022-07-29T03:12:55.150Z,100793.50
2022-07-29T03:15:22.711Z,100795.81
2022-07-29T03:17:52.648Z,100792.47
2022-07-29T03:20:19.677Z,100804.06
2022-07-29T03:22:49.591Z,100804.34
2022-07-29T03:25:17.680Z,100797.25
2022-07-29T03:27:45.271Z,100790.91
2022-07-29T03:30:18.370Z,100787.56
2022-07-29T03:32:49.708Z,100791.66
2022-07-29T03:35:19.283Z,100781.66
2022-07-29T03:37:46.552Z,100777.94
2022-07-29T03:40:19.151Z,100790.28
2022-07-29T03:42:47.983Z,100787.34
2022-07-29T03:45:18.531Z,100772.16
2022-07-29T03:47:54.678Z,100773.91
2022-07-29T03:50:23.774Z,100772.59
2022-07-29T03:52:51.036Z,100774.63
2022-07-29T03:55:18.297Z,100772.50
2022-07-29T03:57:47.753Z,100774.97
2022-07-29T04:00:16.473Z,100769.81
2022-07-29T04:02:49.589Z,100770.66
2022-07-29T04:05:17.434Z,100771.19
2022-07-29T04:07:48.279Z,100776.84
2022-07-29T04:10:30.230Z,100790.00
2022-07-29T04:12:58.386Z,100781.91
2022-07-29T04:15:24.961Z,100787.59
2022-07-29T04:17:51.470Z,100800.28
2022-07-29T04:20:18.310Z,100801.38
2022-07-29T04:22:44.887Z,100791.66
2022-07-29T04:25:11.439Z,100795.44
2022-07-29T04:27:57.928Z,100791.91
2022-07-29T04:30:24.491Z,100799.97
2022-07-29T04:32:50.996Z,100803.81
2022-07-29T04:35:17.540Z,100813.81
2022-07-29T04:37:44.094Z,100810.00
2022-07-29T04:40:11.080Z,100810.22
2022-07-29T04:42:46.518Z,100816.44
2022-07-29T04:45:14.275Z,100818.84
2022-07-29T04:47:41.294Z,100822.09
2022-07-29T04:50:09.170Z,100812.38
2022-07-29T04:52:36.273Z,100824.25
2022-07-29T04:55:04.310Z,100824.84
2022-07-29T04:57:30.985Z,100827.00
2022-07-29T04:59:57.626Z,100835.66
2022-07-29T05:02:24.264Z,100841.16
2022-07-29T05:04:50.869Z,100842.88
2022-07-29T05:07:17.854Z,100854.50
2022-07-29T05:09:44.375Z,100852.63
2022-07-29T05:12:11.027Z,100852.38
2022-07-29T05:14:37.533Z,100858.84
2022-07-29T05:17:04.133Z,100860.78
2022-07-29T05:19:30.634Z,100860.34
2022-07-29T05:21:57.150Z,100858.13
2022-07-29T05:24:23.686Z,100856.88
2022-07-29T05:26:50.249Z,100866.03
2022-07-29T05:29:42.840Z,100866.69
2022-07-29T05:32:04.533Z,100871.41
2022-07-29T05:34:31.904Z,100861.06
2022-07-29T05:36:58.654Z,100861.91
2022-07-29T05:39:47.588Z,100863.44
2022-07-29T05:42:12.702Z,100860.38
2022-07-29T05:44:40.356Z,100874.88
2022-07-29T05:47:07.460Z,100869.50
2022-07-29T05:49:34.300Z,100870.44
2022-07-29T05:52:00.911Z,100863.81
2022-07-29T05:54:27.542Z,100869.50
2022-07-29T05:56:54.024Z,100870.25
2022-07-29T05:59:20.509Z,100874.34
2022-07-29T06:01:47.079Z,100880.25
2022-07-29T06:04:14.097Z,100882.28
2022-07-29T06:06:40.887Z,100884.72
2022-07-29T06:09:12.284Z,100888.31
2022-07-29T06:11:39.183Z,100896.34
2022-07-29T06:14:05.861Z,100895.75
2022-07-29T06:16:32.417Z,100891.53
2022-07-29T06:18:59.085Z,100894.06
2022-07-29T06:21:25.807Z,100891.09
2022-07-29T06:23:52.508Z,100900.25
2022-07-29T06:26:19.007Z,100902.22
2022-07-29T06:28:57.492Z,100896.47
2022-07-29T06:31:24.070Z,100900.94
2022-07-29T06:33:50.744Z,100899.28
2022-07-29T06:36:17.270Z,100900.00
2022-07-29T06:38:49.429Z,100900.84
2022-07-29T06:41:18.253Z,100905.78
2022-07-29T06:43:51.754Z,100901.34
2022-07-29T06:46:21.058Z,100915.34
2022-07-29T06:48:50.936Z,100913.22
2022-07-29T06:51:22.474Z,100912.63
2022-07-29T06:53:58.264Z,100913.78
2022-07-29T06:56:28.147Z,100919.13
2022-07-29T06:58:54.704Z,100909.34
2022-07-29T07:01:21.341Z,100909.59
2022-07-29T07:03:48.686Z,100908.53
2022-07-29T07:06:15.426Z,100918.38
2022-07-29T07:08:42.031Z,100921.31
2022-07-29T07:11:09.208Z,100910.41
2022-07-29T07:13:36.607Z,100915.47
2022-07-29T07:16:04.214Z,100911.88
2022-07-29T07:18:31.021Z,100922.13
2022-07-29T07:20:58.284Z,100914.19
2022-07-29T07:23:25.749Z,100919.25
2022-07-29T07:25:52.407Z,100914.06
2022-07-29T07:28:19.146Z,100909.47
2022-07-29T07:30:51.330Z,100907.25
2022-07-29T07:33:17.911Z,100914.63
2022-07-29T07:35:45.227Z,100913.72
2022-07-29T07:38:11.787Z,100909.31
2022-07-29T07:40:38.418Z,100903.16
2022-07-29T07:43:05.006Z,100909.59
2022-07-29T07:45:33.990Z,100910.19
2022-07-29T07:48:01.036Z,100904.06
2022-07-29T07:50:27.761Z,100897.50
2022-07-29T07:52:58.555Z,100884.97
2022-07-29T07:55:26.545Z,100894.97
2022-07-29T07:57:53.536Z,100904.94
2022-07-29T08:00:22.984Z,100905.53
2022-07-29T08:02:51.158Z,100907.94
2022-07-29T08:05:18.259Z,100908.66
2022-07-29T08:07:48.065Z,100908.28
2022-07-29T08:10:40.072Z,100897.97
2022-07-29T08:13:08.987Z,100891.81
2022-07-29T08:15:36.152Z,100887.16
2022-07-29T08:18:08.373Z,100888.63
2022-07-29T08:20:36.729Z,100890.16
2022-07-29T08:23:05.385Z,100892.94
2022-07-29T08:25:32.015Z,100887.16
2022-07-29T08:27:58.609Z,100886.19
2022-07-29T08:30:25.440Z,100882.81
2022-07-29T08:32:55.294Z,100888.69
2022-07-29T08:35:23.062Z,100880.56
2022-07-29T08:37:49.794Z,100886.69
2022-07-29T08:40:16.565Z,100883.47
2022-07-29T08:42:43.342Z,100879.47
2022-07-29T08:45:10.614Z,100869.28
2022-07-29T08:47:40.682Z,100869.16
2022-07-29T08:50:11.666Z,100872.19
2022-07-29T08:52:40.703Z,100874.19
2022-07-29T08:55:09.677Z,100868.91
2022-07-29T08:57:37.408Z,100868.88
2022-07-29T09:00:11.586Z,100863.69
2022-07-29T09:02:46.765Z,100869.16
2022-07-29T09:05:14.379Z,100868.09
2022-07-29T09:07:44.078Z,100860.47
2022-07-29T09:10:11.287Z,100864.00
2022-07-29T09:12:38.440Z,100867.59
2022-07-29T09:15:05.481Z,100869.72
2022-07-29T09:17:47.011Z,100861.50
2022-07-29T09:20:24.104Z,100863.94
2022-07-29T09:22:53.637Z,100861.19
2022-07-29T09:25:40.298Z,100859.16
2022-07-29T09:28:11.527Z,100863.50
2022-07-29T09:30:55.485Z,100854.56
2022-07-29T09:33:24.015Z,100847.47
2022-07-29T09:36:01.811Z,100846.41
2022-07-29T09:38:28.719Z,100839.47
2022-07-29T09:40:59.874Z,100841.56
2022-07-29T09:43:31.477Z,100833.41
2022-07-29T09:46:12.282Z,100839.06
2022-07-29T09:48:39.078Z,100838.09
2022-07-29T09:51:06.837Z,100832.38
2022-07-29T09:53:38.939Z,100823.59
2022-07-29T09:56:06.173Z,100820.88
2022-07-29T09:58:36.428Z,100812.78
2022-07-29T10:01:04.889Z,100816.09
2022-07-29T10:03:31.759Z,100817.06
2022-07-29T10:06:12.076Z,100818.03
2022-07-29T10:08:39.186Z,100818.91
2022-07-29T10:11:17.800Z,100822.09
2022-07-29T10:13:49.325Z,100807.16
2022-07-29T10:16:17.204Z,100812.28
2022-07-29T10:18:44.800Z,100812.38
2022-07-29T10:21:34.546Z,100811.06
2022-07-29T10:24:01.350Z,100807.81
2022-07-29T10:26:29.166Z,100810.44
2022-07-29T10:28:56.701Z,100803.69
2022-07-29T10:31:35.151Z,100806.59
2022-07-29T10:34:13.507Z,100803.44
2022-07-29T10:37:07.916Z,100800.97
2022-07-29T10:40:01.579Z,100787.44
2022-07-29T10:42:34.359Z,100784.19
2022-07-29T10:45:04.624Z,100780.06
2022-07-29T10:47:32.158Z,100772.13
2022-07-29T10:49:58.862Z,100768.13
2022-07-29T10:52:57.586Z,100761.13
2022-07-29T10:55:43.160Z,100750.38
2022-07-29T10:58:24.546Z,100746.72
2022-07-29T11:00:52.865Z,100749.34
2022-07-29T11:03:49.211Z,100744.56
2022-07-29T11:06:16.992Z,100745.31
2022-07-29T11:08:44.682Z,100739.94
2022-07-29T11:11:29.648Z,100733.06
2022-07-29T11:13:57.042Z,100732.72
2022-07-29T11:16:25.218Z,100726.41
2022-07-29T11:19:14.328Z,100735.44
2022-07-29T11:21:54.989Z,100735.41
2022-07-29T11:24:35.540Z,100744.84
2022-07-29T11:27:18.265Z,100723.66
2022-07-29T11:32:48.609Z,100730.94
2022-07-29T11:35:37.088Z,100726.41
2022-07-29T11:38:23.663Z,100723.13
2022-07-29T11:41:18.154Z,100727.25
2022-07-29T11:43:50.646Z,100717.25
2022-07-29T11:46:38.787Z,100717.88
2022-07-29T11:49:09.762Z,100718.63
2022-07-29T11:51:38.335Z,100711.66
2022-07-29T11:54:27.549Z,100710.28
2022-07-29T11:56:54.896Z,100717.59
2022-07-29T11:59:22.153Z,100719.81
2022-07-29T12:02:18.460Z,100703.88
2022-07-29T12:04:57.640Z,100695.97
2022-07-29T12:07:01.387Z,100729.88
2022-07-29T12:07:34.640Z,100701.84
2022-07-29T12:10:02.414Z,100704.81
2022-07-29T12:12:29.392Z,100704.72
2022-07-29T12:14:56.355Z,100699.69
2022-07-29T12:17:30.840Z,100696.63
2022-07-29T12:19:59.304Z,100681.94
2022-07-29T12:22:35.038Z,100681.69
2022-07-29T12:25:32.421Z,100680.81
2022-07-29T12:28:05.929Z,100676.81
2022-07-29T12:30:43.034Z,100665.47
2022-07-29T12:33:24.076Z,100660.28
2022-07-29T12:36:17.141Z,100662.06
2022-07-29T12:38:41.760Z,100651.13
2022-07-29T12:41:08.513Z,100654.41
2022-07-29T12:43:35.205Z,100645.88
2022-07-29T12:46:14.539Z,100642.66
2022-07-29T12:48:43.606Z,100641.38
2022-07-29T12:51:12.655Z,100636.41
2022-07-29T12:53:39.839Z,100641.38
2022-07-29T12:56:26.511Z,100649.88
2022-07-29T12:58:54.063Z,100643.88
2022-07-29T13:01:21.704Z,100633.91
2022-07-29T13:03:59.670Z,100637.06
2022-07-29T13:06:41.948Z,100636.47
2022-07-29T13:09:09.823Z,100641.09
2022-07-29T13:11:45.262Z,100630.09
2022-07-29T13:14:32.072Z,100634.75
2022-07-29T13:17:06.508Z,100611.44
2022-07-29T13:19:48.078Z,100618.06
2022-07-29T13:22:18.341Z,100623.06
2022-07-29T13:24:55.662Z,100624.56
2022-07-29T13:27:24.838Z,100626.09
2022-07-29T13:29:53.339Z,100614.59
2022-07-29T13:32:28.188Z,100609.34
2022-07-29T13:34:56.826Z,100613.13
2022-07-29T13:37:23.560Z,100605.44
2022-07-29T13:39:52.754Z,100604.22
2022-07-29T13:42:19.742Z,100603.16
2022-07-29T13:44:46.217Z,100593.19
2022-07-29T13:47:12.692Z,100587.22
2022-07-29T13:49:39.214Z,100585.88
2022-07-29T13:52:08.323Z,100586.22
2022-07-29T13:54:42.100Z,100578.72
2022-07-29T13:57:11.841Z,100566.47
2022-07-29T13:59:39.346Z,100565.03
2022-07-29T14:02:06.524Z,100566.19
2022-07-29T14:04:33.643Z,100556.72
2022-07-29T14:07:00.378Z,100563.47
2022-07-29T14:09:30.624Z,100566.38
2022-07-29T14:12:08.176Z,100569.94
2022-07-29T14:14:36.479Z,100560.00
2022-07-29T14:17:04.246Z,100564.72
2022-07-29T14:19:32.894Z,100566.34
2022-07-29T14:21:59.961Z,100561.34
2022-07-29T14:24:26.815Z,100561.44
2022-07-29T14:26:53.442Z,100562.97
2022-07-29T14:29:20.076Z,100571.38
2022-07-29T14:31:46.719Z,100568.31
2022-07-29T14:34:13.331Z,100560.44
2022-07-29T14:36:39.895Z,100565.84
2022-07-29T14:39:06.470Z,100573.25
2022-07-29T14:41:33.749Z,100580.63
2022-07-29T14:44:03.457Z,100578.72
2022-07-29T14:46:30.049Z,100572.63
2022-07-29T14:48:56.727Z,100578.00
2022-07-29T14:51:23.282Z,100572.47
2022-07-29T14:53:49.882Z,100572.09
2022-07-29T14:56:35.978Z,100577.75
2022-07-29T14:59:03.043Z,100584.44
2022-07-29T15:01:30.183Z,100573.97
2022-07-29T15:03:59.690Z,100574.94
2022-07-29T15:06:27.151Z,100573.00
2022-07-29T15:08:54.043Z,100580.50
2022-07-29T15:11:20.740Z,100583.59
2022-07-29T15:13:47.266Z,100598.56
2022-07-29T15:16:13.922Z,100606.00
2022-07-29T15:18:40.679Z,100605.53
2022-07-29T15:21:10.361Z,100601.53
2022-07-29T15:23:37.340Z,100619.00
2022-07-29T15:26:05.091Z,100623.03
2022-07-29T15:28:31.696Z,100614.84
2022-07-29T15:30:58.323Z,100620.56
2022-07-29T15:33:24.934Z,100623.72
2022-07-29T15:35:51.565Z,100622.28
2022-07-29T15:38:18.408Z,100631.78
2022-07-29T15:40:46.536Z,100616.75
2022-07-29T15:43:13.220Z,100621.56
2022-07-29T15:46:06.661Z,100610.19
2022-07-29T15:48:33.383Z,100598.81
2022-07-29T15:51:00.893Z,100590.44
2022-07-29T15:53:27.584Z,100598.94
2022-07-29T15:55:54.244Z,100602.03
2022-07-29T15:58:20.828Z,100612.94
2022-07-29T16:00:47.884Z,100613.88
2022-07-29T16:03:14.824Z,100617.09
2022-07-29T16:05:41.406Z,100613.25
2022-07-29T16:08:08.476Z,100611.34
2022-07-29T16:10:35.078Z,100626.38
2022-07-29T16:13:01.764Z,100645.50
2022-07-29T16:15:28.309Z,100656.22
2022-07-29T16:17:54.909Z,100669.19
2022-07-29T16:20:22.372Z,100669.66
2022-07-29T16:22:49.205Z,100667.66
2022-07-29T16:25:15.764Z,100660.44
2022-07-29T16:27:42.308Z,100655.53
2022-07-29T16:30:12.351Z,100659.63
2022-07-29T16:32:39.787Z,100660.78
2022-07-29T16:35:07.841Z,100653.72
2022-07-29T16:37:38.618Z,100647.22
2022-07-29T16:40:07.054Z,100650.72
2022-07-29T16:42:46.567Z,100643.88
2022-07-29T16:45:14.694Z,100656.97
2022-07-29T16:47:41.226Z,100646.88
2022-07-29T16:50:08.580Z,100644.53
2022-07-29T16:52:36.018Z,100646.72
2022-07-29T16:55:02.585Z,100633.81
2022-07-29T16:57:29.179Z,100634.03
2022-07-29T16:59:55.729Z,100620.00
2022-07-29T17:02:22.444Z,100622.75
2022-07-29T17:04:49.075Z,100624.25
2022-07-29T17:07:16.064Z,100621.03
2022-07-29T17:09:43.064Z,100623.06
2022-07-29T17:12:09.774Z,100618.16
2022-07-29T17:14:36.797Z,100617.28
2022-07-29T17:17:04.198Z,100616.38
2022-07-29T17:19:38.994Z,100621.22
2022-07-29T17:22:14.301Z,100618.94
2022-07-29T17:24:45.815Z,100617.94
2022-07-29T17:27:12.521Z,100609.81
2022-07-29T17:29:39.412Z,100621.94
2022-07-29T17:32:07.535Z,100625.22
2022-07-29T17:34:35.878Z,100622.31
2022-07-29T17:37:02.534Z,100632.66
2022-07-29T17:39:29.034Z,100641.06
2022-07-29T17:41:55.717Z,100647.84
2022-07-29T17:44:22.210Z,100643.88
2022-07-29T17:46:48.859Z,100655.16
2022-07-29T17:49:15.517Z,100653.84
2022-07-29T17:51:42.175Z,100659.09
2022-07-29T17:54:08.718Z,100652.84
2022-07-29T17:56:35.348Z,100663.13
2022-07-29T17:59:06.417Z,100669.47
2022-07-29T18:01:33.946Z,100665.03
2022-07-29T18:04:01.031Z,100670.47
2022-07-29T18:06:27.653Z,100668.78
2022-07-29T18:08:55.296Z,100680.00
2022-07-29T18:11:22.923Z,100669.16
2022-07-29T18:13:49.770Z,100672.03
2022-07-29T18:16:16.401Z,100666.59
2022-07-29T18:18:44.773Z,100672.47
2022-07-29T18:21:12.110Z,100670.25
2022-07-29T18:23:38.937Z,100660.47
2022-07-29T18:26:05.491Z,100656.66
2022-07-29T18:28:34.577Z,100654.50
2022-07-29T18:31:02.415Z,100648.84
2022-07-29T18:33:29.030Z,100645.94
2022-07-29T18:36:10.877Z,100649.25
2022-07-29T18:38:41.533Z,100658.28
2022-07-29T18:41:08.281Z,100658.41
2022-07-29T18:43:34.923Z,100649.16
2022-07-29T18:46:01.487Z,100645.13
2022-07-29T18:48:29.155Z,100644.53
2022-07-29T18:50:55.731Z,100641.59
2022-07-29T18:53:22.280Z,100640.84
2022-07-29T18:55:48.766Z,100641.22
2022-07-29T18:58:15.338Z,100644.06
2022-07-29T19:00:41.961Z,100647.38
2022-07-29T19:03:08.937Z,100651.19
2022-07-29T19:05:35.591Z,100648.56
2022-07-29T19:08:02.144Z,100652.56
2022-07-29T19:10:28.811Z,100664.97
2022-07-29T19:12:56.777Z,100670.59
2022-07-29T19:15:23.343Z,100683.06
2022-07-29T19:17:49.950Z,100685.38
2022-07-29T19:20:16.750Z,100688.28
2022-07-29T19:22:43.329Z,100682.28
2022-07-29T19:25:10.133Z,100680.44
2022-07-29T19:27:36.786Z,100683.06
2022-07-29T19:30:06.398Z,100701.16
2022-07-29T19:32:33.015Z,100715.78
2022-07-29T19:35:18.205Z,100736.09
2022-07-29T19:37:44.822Z,100748.16
2022-07-29T19:40:12.236Z,100747.19
2022-07-29T19:42:39.006Z,100724.00
2022-07-29T19:45:06.200Z,100714.31
2022-07-29T19:47:32.763Z,100716.56
2022-07-29T19:50:00.626Z,100706.66
2022-07-29T19:52:27.744Z,100706.50
2022-07-29T19:54:54.292Z,100698.06
2022-07-29T19:57:20.816Z,100704.03
2022-07-29T19:59:47.459Z,100704.63
2022-07-29T20:02:14.260Z,100706.09
2022-07-29T20:04:42.749Z,100706.09
2022-07-29T20:07:09.484Z,100720.91
2022-07-29T20:09:36.318Z,100723.25
2022-07-29T20:12:04.721Z,100723.09
2022-07-29T20:14:31.227Z,100729.59
2022-07-29T20:16:57.858Z,100727.38
2022-07-29T20:19:24.614Z,100740.75
2022-07-29T20:21:51.494Z,100751.41
2022-07-29T20:24:20.444Z,100751.44
2022-07-29T20:26:47.905Z,100754.34
2022-07-29T20:29:14.907Z,100747.00
2022-07-29T20:31:43.246Z,100758.59
2022-07-29T20:34:09.894Z,100763.44
2022-07-29T20:36:36.537Z,100765.78
2022-07-29T20:39:03.412Z,100772.41
2022-07-29T20:41:30.153Z,100774.09
2022-07-29T20:43:56.682Z,100786.41
2022-07-29T20:46:23.346Z,100787.03
2022-07-29T20:48:49.992Z,100796.97
2022-07-29T20:51:16.535Z,100804.19
2022-07-29T20:53:43.070Z,100803.16
2022-07-29T20:56:09.672Z,100798.16
2022-07-29T20:58:36.608Z,100808.06
2022-07-29T21:01:04.142Z,100809.06
2022-07-29T21:03:30.842Z,100804.38
2022-07-29T21:05:57.405Z,100797.38
2022-07-29T21:08:24.066Z,100796.44
2022-07-29T21:10:50.825Z,100792.69
2022-07-29T21:13:18.605Z,100782.94
2022-07-29T21:15:49.211Z,100789.34
2022-07-29T21:18:27.332Z,100799.72
2022-07-29T21:20:55.314Z,100802.44
2022-07-29T21:23:22.026Z,100801.75
2022-07-29T21:25:48.645Z,100805.84
2022-07-29T21:28:27.396Z,100804.88
2022-07-29T21:30:59.286Z,100797.66
2022-07-29T21:33:28.069Z,100792.44
2022-07-29T21:38:41.309Z,100807.16
2022-07-29T21:41:08.188Z,100803.88
2022-07-29T21:43:34.775Z,100810.75
2022-07-29T21:46:01.500Z,100823.00
2022-07-29T21:48:28.863Z,100826.44
2022-07-29T21:50:56.037Z,100827.81
2022-07-29T21:53:23.261Z,100827.56
2022-07-29T21:55:55.986Z,100834.78
2022-07-29T21:58:23.704Z,100842.28
2022-07-29T22:00:50.446Z,100827.91
2022-07-29T22:03:17.161Z,100841.31
2022-07-29T22:05:44.202Z,100840.81
2022-07-29T22:08:10.905Z,100832.97
2022-07-29T22:10:37.651Z,100835.59
2022-07-29T22:13:04.795Z,100840.19
2022-07-29T22:15:31.722Z,100848.97
2022-07-29T22:17:58.458Z,100855.03
2022-07-29T22:20:25.495Z,100843.50
2022-07-29T22:22:52.580Z,100845.75
2022-07-29T22:25:19.349Z,100836.69
2022-07-29T22:27:45.918Z,100844.81
2022-07-29T22:30:13.212Z,100853.00
2022-07-29T22:32:40.239Z,100848.34
2022-07-29T22:35:07.624Z,100840.88
2022-07-29T22:37:34.311Z,100843.22
2022-07-29T22:40:01.229Z,100845.72
2022-07-29T22:42:27.774Z,100846.38
2022-07-29T22:44:54.365Z,100838.44
2022-07-29T22:47:38.747Z,100838.53
2022-07-29T22:50:07.767Z,100843.84
2022-07-29T22:52:34.298Z,100834.38
2022-07-29T22:55:00.954Z,100836.31
2022-07-29T22:57:27.521Z,100841.16
2022-07-29T22:59:54.078Z,100844.84
2022-07-29T23:02:20.583Z,100846.88
2022-07-29T23:04:47.127Z,100840.50
2022-07-29T23:07:13.695Z,100843.16
2022-07-29T23:09:40.284Z,100843.59
2022-07-29T23:12:07.186Z,100835.78
2022-07-29T23:14:33.741Z,100837.06
2022-07-29T23:17:00.516Z,100831.41
2022-07-29T23:19:27.388Z,100830.38
2022-07-29T23:21:54.000Z,100833.53
2022-07-29T23:24:20.612Z,100837.63
2022-07-29T23:26:47.134Z,100833.41
2022-07-29T23:29:13.629Z,100817.72
2022-07-29T23:31:41.824Z,100818.47
2022-07-29T23:34:14.323Z,100821.66
2022-07-29T23:36:42.185Z,100824.91
2022-07-29T23:39:13.163Z,100821.69
2022-07-29T23:41:39.792Z,100820.63
2022-07-29T23:44:06.409Z,100805.88
2022-07-29T23:46:33.252Z,100811.44
2022-07-29T23:49:00.209Z,100813.97
2022-07-29T23:51:28.998Z,100814.91
2022-07-29T23:53:55.894Z,100815.72
2022-07-29T23:56:22.508Z,100818.19
2022-07-29T23:58:49.032Z,100818.03
